createdAt,value
2017-07-05T00:02:07.091Z,3.90
2017-07-05T00:04:35.543Z,4.50
2017-07-05T00:07:04.171Z,4.93
2017-07-05T00:09:32.419Z,3.60
2017-07-05T00:12:00.650Z,5.23
2017-07-05T00:14:28.892Z,8.03
2017-07-05T00:16:57.172Z,4.37
2017-07-05T00:19:25.392Z,5.57
2017-07-05T00:21:53.712Z,8.27
2017-07-05T00:24:21.992Z,6.67
2017-07-05T00:26:50.539Z,8.50
2017-07-05T00:29:19.200Z,5.37
2017-07-05T00:31:47.544Z,5.87
2017-07-05T00:34:15.821Z,4.23
2017-07-05T00:36:44.089Z,4.40
2017-07-05T00:39:12.361Z,4.83
2017-07-05T00:41:40.592Z,6.93
2017-07-05T00:44:08.827Z,5.03
2017-07-05T00:46:37.439Z,5.20
2017-07-05T00:49:05.781Z,4.53
2017-07-05T00:51:34.220Z,6.50
2017-07-05T00:54:02.538Z,8.60
2017-07-05T00:56:30.783Z,3.17
2017-07-05T00:58:59.025Z,5.97
2017-07-05T01:01:27.461Z,5.30
2017-07-05T01:03:56.003Z,5.90
2017-07-05T01:06:24.735Z,6.53
2017-07-05T01:08:53.111Z,6.40
2017-07-05T01:11:21.402Z,5.70
2017-07-05T01:13:49.679Z,7.07
2017-07-05T01:16:17.945Z,2.57
2017-07-05T01:18:46.225Z,5.40
2017-07-05T01:21:14.503Z,4.67
2017-07-05T01:23:42.760Z,7.33
2017-07-05T01:26:11.160Z,4.30
2017-07-05T01:28:39.665Z,6.80
2017-07-05T01:31:07.978Z,5.73
2017-07-05T01:33:37.071Z,3.43
2017-07-05T01:36:11.118Z,3.60
2017-07-05T01:38:39.598Z,4.63
2017-07-05T01:41:07.974Z,3.43
2017-07-05T01:43:36.550Z,5.90
2017-07-05T01:46:04.882Z,5.73
2017-07-05T01:48:33.768Z,3.10
2017-07-05T01:51:02.133Z,6.73
2017-07-05T01:53:30.460Z,6.50
2017-07-05T01:55:58.847Z,4.83
2017-07-05T01:58:27.223Z,6.77
2017-07-05T02:00:55.834Z,5.43
2017-07-05T02:03:24.073Z,3.27
2017-07-05T02:05:52.334Z,5.63
2017-07-05T02:08:20.960Z,5.00
2017-07-05T02:10:49.240Z,5.13
2017-07-05T02:13:17.491Z,3.23
2017-07-05T02:15:45.720Z,3.33
2017-07-05T02:18:13.955Z,2.97
2017-07-05T02:20:42.236Z,4.00
2017-07-05T02:23:10.467Z,6.53
2017-07-05T02:25:39.098Z,5.70
2017-07-05T02:28:07.467Z,5.33
2017-07-05T02:30:35.749Z,3.70
2017-07-05T02:33:04.362Z,6.17
2017-07-05T02:35:32.763Z,6.93
2017-07-05T02:38:00.998Z,3.27
2017-07-05T02:40:29.269Z,16.27
2017-07-05T02:42:57.657Z,9.07
2017-07-05T02:45:25.893Z,6.07
2017-07-05T02:47:54.131Z,4.30
2017-07-05T02:50:22.593Z,7.87
2017-07-05T02:52:50.823Z,9.43
2017-07-05T02:55:19.056Z,7.13
2017-07-05T02:57:47.333Z,5.30
2017-07-05T03:00:15.679Z,3.67
2017-07-05T03:02:44.009Z,6.50
2017-07-05T03:05:12.739Z,7.00
2017-07-05T03:07:41.018Z,5.00
2017-07-05T03:10:09.532Z,6.03
2017-07-05T03:12:38.399Z,7.10
2017-07-05T03:15:06.901Z,5.60
2017-07-05T03:17:35.137Z,5.97
2017-07-05T03:20:03.415Z,8.67
2017-07-05T03:22:31.643Z,6.20
2017-07-05T03:24:59.896Z,6.03
2017-07-05T03:27:28.499Z,4.60
2017-07-05T03:29:56.721Z,8.50
2017-07-05T03:32:25.016Z,11.90
2017-07-05T03:34:53.268Z,3.60
2017-07-05T03:37:21.554Z,3.80
2017-07-05T03:39:49.792Z,7.07
2017-07-05T03:42:19.160Z,4.47
2017-07-05T03:44:47.384Z,4.70
2017-07-05T03:47:16.434Z,6.17
2017-07-05T03:49:44.723Z,8.63
2017-07-05T03:52:12.954Z,7.03
2017-07-05T03:54:41.187Z,7.07
2017-07-05T03:57:09.913Z,3.70
2017-07-05T03:59:38.295Z,10.90
2017-07-05T04:02:06.533Z,4.67
2017-07-05T04:04:35.255Z,3.63
2017-07-05T04:07:03.534Z,7.90
2017-07-05T04:09:31.805Z,9.07
2017-07-05T04:12:00.236Z,6.07
2017-07-05T04:14:28.561Z,4.40
2017-07-05T04:16:56.797Z,9.23
2017-07-05T04:19:25.450Z,5.60
2017-07-05T04:21:54.119Z,5.23
2017-07-05T04:24:22.404Z,7.70
2017-07-05T04:26:50.764Z,13.00
2017-07-05T04:29:19.044Z,10.10
2017-07-05T04:31:47.320Z,8.47
2017-07-05T04:34:15.589Z,7.07
2017-07-05T04:36:43.873Z,5.57
2017-07-05T04:39:12.109Z,7.87
2017-07-05T04:41:40.796Z,8.63
2017-07-05T04:44:09.421Z,12.30
2017-07-05T04:46:37.689Z,12.00
2017-07-05T04:49:05.977Z,9.37
2017-07-05T04:51:34.377Z,6.53
2017-07-05T04:54:02.611Z,7.93
2017-07-05T04:56:30.909Z,10.10
2017-07-05T04:58:59.172Z,13.23
2017-07-05T05:01:27.417Z,6.63
2017-07-05T05:03:56.137Z,4.73
2017-07-05T05:06:24.384Z,13.10
2017-07-05T05:08:52.788Z,9.50
2017-07-05T05:11:21.119Z,10.40
2017-07-05T05:13:49.375Z,11.43
2017-07-05T05:16:17.857Z,10.20
2017-07-05T05:18:46.141Z,5.30
2017-07-05T05:21:14.716Z,7.50
2017-07-05T05:23:42.967Z,8.17
2017-07-05T05:26:11.468Z,9.33
2017-07-05T05:28:39.737Z,7.23
2017-07-05T05:31:07.953Z,6.90
2017-07-05T05:33:36.734Z,7.63
2017-07-05T05:36:04.976Z,11.33
2017-07-05T05:38:33.208Z,6.47
2017-07-05T05:41:01.526Z,10.50
2017-07-05T05:43:29.932Z,9.70
2017-07-05T05:45:58.164Z,12.73
2017-07-05T05:48:26.436Z,8.33
2017-07-05T05:50:54.948Z,9.90
2017-07-05T05:53:23.250Z,8.13
2017-07-05T05:55:51.919Z,10.80
2017-07-05T05:58:20.156Z,6.60
2017-07-05T06:00:48.416Z,9.73
2017-07-05T06:03:18.450Z,9.80
2017-07-05T06:05:48.554Z,6.70
2017-07-05T06:08:17.930Z,8.97
2017-07-05T06:10:46.244Z,7.13
2017-07-05T06:13:15.231Z,8.13
2017-07-05T06:15:43.641Z,10.03
2017-07-05T06:18:12.693Z,9.67
2017-07-05T06:20:41.445Z,10.10
2017-07-05T06:23:09.804Z,12.73
2017-07-05T06:25:38.082Z,9.87
2017-07-05T06:28:06.674Z,7.20
2017-07-05T06:30:34.917Z,7.10
2017-07-05T06:33:03.285Z,8.57
2017-07-05T06:35:31.706Z,6.10
2017-07-05T06:38:00.383Z,10.67
2017-07-05T06:40:28.768Z,6.50
2017-07-05T06:42:57.033Z,10.90
2017-07-05T06:45:25.332Z,9.30
2017-07-05T06:47:53.689Z,14.47
2017-07-05T06:50:22.862Z,8.47
2017-07-05T06:52:51.116Z,6.80
2017-07-05T06:55:19.370Z,13.43
2017-07-05T06:57:48.003Z,11.00
2017-07-05T07:00:16.266Z,16.93
2017-07-05T07:02:44.536Z,16.33
2017-07-05T07:05:12.775Z,9.77
2017-07-05T07:07:41.432Z,7.63
2017-07-05T07:10:09.697Z,7.27
2017-07-05T07:12:37.957Z,17.33
2017-07-05T07:15:06.325Z,13.60
2017-07-05T07:17:34.590Z,18.13
2017-07-05T07:20:02.837Z,12.97
2017-07-05T07:22:31.308Z,16.30
2017-07-05T07:24:59.636Z,18.10
2017-07-05T07:27:28.951Z,12.20
2017-07-05T07:29:57.200Z,7.63
2017-07-05T07:32:25.490Z,14.87
2017-07-05T07:34:53.886Z,13.70
2017-07-05T07:37:22.135Z,16.27
2017-07-05T07:39:50.421Z,11.10
2017-07-05T07:42:18.670Z,12.73
2017-07-05T07:44:47.300Z,10.63
2017-07-05T07:47:15.598Z,11.30
2017-07-05T07:49:43.851Z,15.60
2017-07-05T07:52:12.092Z,16.57
2017-07-05T07:54:40.375Z,19.57
2017-07-05T07:57:09.516Z,10.07
2017-07-05T07:59:37.747Z,15.70
2017-07-05T08:02:06.169Z,11.60
2017-07-05T08:04:34.399Z,13.13
2017-07-05T08:07:02.640Z,8.40
2017-07-05T08:09:31.016Z,8.90
2017-07-05T08:11:59.262Z,14.40
2017-07-05T08:14:27.509Z,11.00
2017-07-05T08:16:55.779Z,8.20
2017-07-05T08:19:24.021Z,6.60
2017-07-05T08:21:52.256Z,11.10
2017-07-05T08:24:20.521Z,5.50
2017-07-05T08:26:48.794Z,7.73
2017-07-05T08:29:17.086Z,8.20
2017-07-05T08:31:45.481Z,9.03
2017-07-05T08:34:13.713Z,10.50
2017-07-05T08:36:42.012Z,9.30
2017-07-05T08:39:10.493Z,7.10
2017-07-05T08:41:38.804Z,12.80
2017-07-05T08:44:07.477Z,6.93
2017-07-05T08:46:35.726Z,8.67
2017-07-05T08:49:04.033Z,6.67
2017-07-05T08:51:32.277Z,11.30
2017-07-05T08:54:00.560Z,7.03
2017-07-05T08:56:28.858Z,5.83
2017-07-05T08:58:57.093Z,10.23
2017-07-05T09:01:25.393Z,7.70
2017-07-05T09:03:53.623Z,26.73
2017-07-05T09:06:21.877Z,260.87
2017-07-05T09:08:50.177Z,425.13
2017-07-05T09:11:18.428Z,113.20
2017-07-05T09:13:46.685Z,130.10
2017-07-05T09:16:14.985Z,14.57
2017-07-05T09:18:43.234Z,17.73
2017-07-05T09:21:11.478Z,22.03
2017-07-05T09:23:39.756Z,25.63
2017-07-05T09:26:08.051Z,49.20
2017-07-05T09:28:36.293Z,75.03
2017-07-05T09:31:04.600Z,95.07
2017-07-05T09:33:33.583Z,40.13
2017-07-05T09:36:02.889Z,48.80
2017-07-05T09:38:31.403Z,33.70
2017-07-05T09:40:59.744Z,39.93
2017-07-05T09:43:28.948Z,57.07
2017-07-05T09:45:57.226Z,31.83
2017-07-05T09:48:25.476Z,26.07
2017-07-05T09:50:53.720Z,15.60
2017-07-05T09:53:22.017Z,55.77
2017-07-05T09:55:50.257Z,14.63
2017-07-05T09:58:18.504Z,19.43
2017-07-05T10:00:46.802Z,9.70
2017-07-05T10:03:15.534Z,20.27
2017-07-05T10:05:43.727Z,14.60
2017-07-05T10:08:12.138Z,15.17
2017-07-05T10:10:40.416Z,35.83
2017-07-05T10:13:09.104Z,10.83
2017-07-05T10:15:37.560Z,24.53
2017-07-05T10:18:06.044Z,26.03
2017-07-05T10:20:34.309Z,9.03
2017-07-05T10:23:02.725Z,9.70
2017-07-05T10:25:30.978Z,7.40
2017-07-05T10:27:59.309Z,8.27
2017-07-05T10:30:27.621Z,5.13
2017-07-05T10:32:55.910Z,6.60
2017-07-05T10:35:24.520Z,6.70
2017-07-05T10:37:52.801Z,8.00
2017-07-05T10:40:22.167Z,5.97
2017-07-05T10:42:50.428Z,8.60
2017-07-05T10:45:18.727Z,7.00
2017-07-05T10:47:46.960Z,9.70
2017-07-05T10:50:15.433Z,7.27
2017-07-05T10:52:43.864Z,6.57
2017-07-05T10:55:12.148Z,6.70
2017-07-05T10:57:40.408Z,8.77
2017-07-05T11:00:08.803Z,13.63
2017-07-05T11:02:37.078Z,7.87
2017-07-05T11:05:08.021Z,16.60
2017-07-05T11:07:36.282Z,9.40
2017-07-05T11:10:04.569Z,9.07
2017-07-05T11:12:32.836Z,10.90
2017-07-05T11:15:01.223Z,6.30
2017-07-05T11:17:29.501Z,12.60
2017-07-05T11:20:00.451Z,7.90
2017-07-05T11:22:28.991Z,8.63
2017-07-05T11:24:57.251Z,15.10
2017-07-05T11:27:25.507Z,15.30
2017-07-05T11:29:53.801Z,13.90
2017-07-05T11:32:22.036Z,10.57
2017-07-05T11:34:50.688Z,11.43
2017-07-05T11:37:19.088Z,12.43
2017-07-05T11:39:47.325Z,11.87
2017-07-05T11:42:15.604Z,12.90
2017-07-05T11:44:43.914Z,7.20
2017-07-05T11:47:12.153Z,7.30
2017-07-05T11:49:40.385Z,11.03
2017-07-05T11:52:08.656Z,10.13
2017-07-05T11:54:37.040Z,6.03
2017-07-05T11:57:05.280Z,10.53
2017-07-05T11:59:33.890Z,9.83
2017-07-05T12:02:02.146Z,9.30
2017-07-05T12:04:30.373Z,9.53
2017-07-05T12:06:59.015Z,7.07
2017-07-05T12:09:27.246Z,6.17
2017-07-05T12:11:55.640Z,6.40
2017-07-05T12:14:24.663Z,4.47
2017-07-05T12:16:53.012Z,12.33
2017-07-05T12:19:21.318Z,7.30
2017-07-05T12:21:49.909Z,12.07
2017-07-05T12:24:18.142Z,3.33
2017-07-05T12:26:46.452Z,10.17
2017-07-05T12:29:14.696Z,9.77
2017-07-05T12:31:42.952Z,9.97
2017-07-05T12:34:11.202Z,6.43
2017-07-05T12:36:39.512Z,7.00
2017-07-05T12:39:07.822Z,4.40
2017-07-05T12:41:36.137Z,8.10
2017-07-05T12:44:04.897Z,6.40
2017-07-05T12:46:33.116Z,11.93
2017-07-05T12:49:01.437Z,7.50
2017-07-05T12:51:29.697Z,7.30
2017-07-05T12:53:57.930Z,7.57
2017-07-05T12:56:26.761Z,4.87
2017-07-05T12:58:55.069Z,5.53
2017-07-05T13:01:23.333Z,6.37
2017-07-05T13:03:51.846Z,3.00
2017-07-05T13:06:20.510Z,4.73
2017-07-05T13:08:48.753Z,5.00
2017-07-05T13:11:17.028Z,5.20
2017-07-05T13:13:45.412Z,5.63
2017-07-05T13:16:13.644Z,4.10
2017-07-05T13:18:42.237Z,5.07
2017-07-05T13:21:10.879Z,3.80
2017-07-05T13:23:39.323Z,4.90
2017-07-05T13:26:07.643Z,6.30
2017-07-05T13:28:35.922Z,6.40
2017-07-05T13:31:04.160Z,5.73
2017-07-05T13:33:32.388Z,5.40
2017-07-05T13:36:01.145Z,4.03
2017-07-05T13:38:29.541Z,5.50
2017-07-05T13:40:57.774Z,6.97
2017-07-05T13:43:26.054Z,6.80
2017-07-05T13:45:54.750Z,7.37
2017-07-05T13:48:22.982Z,3.43
2017-07-05T13:50:51.800Z,6.70
2017-07-05T13:53:20.044Z,5.37
2017-07-05T13:55:48.798Z,4.80
2017-07-05T13:58:17.058Z,4.70
2017-07-05T14:00:45.301Z,5.30
2017-07-05T14:03:13.554Z,2.93
2017-07-05T14:05:42.249Z,5.13
2017-07-05T14:08:10.489Z,3.73
2017-07-05T14:10:38.833Z,5.60
2017-07-05T14:13:07.945Z,6.03
2017-07-05T14:15:36.231Z,6.00
2017-07-05T14:18:04.506Z,8.83
2017-07-05T14:20:32.783Z,6.03
2017-07-05T14:23:01.569Z,3.20
2017-07-05T14:25:29.920Z,5.50
2017-07-05T14:27:58.481Z,7.97
2017-07-05T14:30:27.097Z,2.93
2017-07-05T14:32:55.343Z,2.33
2017-07-05T14:35:23.677Z,3.17
2017-07-05T14:37:52.454Z,3.43
2017-07-05T14:40:20.715Z,2.30
2017-07-05T14:42:49.113Z,2.40
2017-07-05T14:45:17.347Z,4.43
2017-07-05T14:47:45.652Z,2.77
2017-07-05T14:50:13.945Z,2.40
2017-07-05T14:52:42.169Z,6.73
2017-07-05T14:55:10.408Z,2.50
2017-07-05T14:57:39.332Z,1.90
2017-07-05T15:00:07.602Z,5.07
2017-07-05T15:02:35.901Z,4.83
2017-07-05T15:05:04.234Z,4.17
2017-07-05T15:07:32.515Z,4.00
2017-07-05T15:10:01.251Z,6.30
2017-07-05T15:12:29.548Z,3.57
2017-07-05T15:14:57.805Z,2.90
2017-07-05T15:17:26.106Z,7.70
2017-07-05T15:19:54.397Z,1.83
2017-07-05T15:22:22.639Z,3.30
2017-07-05T15:24:51.213Z,3.80
2017-07-05T15:27:19.534Z,1.80
2017-07-05T15:29:47.906Z,5.07
2017-07-05T15:32:16.149Z,3.20
2017-07-05T15:34:44.442Z,2.63
2017-07-05T15:37:12.669Z,7.20
2017-07-05T15:39:41.085Z,4.80
2017-07-05T15:42:10.106Z,4.13
2017-07-05T15:44:38.341Z,3.70
2017-07-05T15:47:06.689Z,4.37
2017-07-05T15:49:34.989Z,4.43
2017-07-05T15:52:03.263Z,2.70
2017-07-05T15:54:31.545Z,7.00
2017-07-05T15:56:59.825Z,2.77
2017-07-05T15:59:28.094Z,2.57
2017-07-05T16:01:56.383Z,3.00
2017-07-05T16:04:24.759Z,4.53
2017-07-05T16:06:53.278Z,1.97
2017-07-05T16:09:21.928Z,1.83
2017-07-05T16:11:50.229Z,3.00
2017-07-05T16:14:18.462Z,2.57
2017-07-05T16:16:46.781Z,2.77
2017-07-05T16:19:15.881Z,5.47
2017-07-05T16:21:44.561Z,2.90
2017-07-05T16:24:12.806Z,3.43
2017-07-05T16:26:41.104Z,3.40
2017-07-05T16:29:09.344Z,3.77
2017-07-05T16:31:37.932Z,2.40
2017-07-05T16:34:06.213Z,1.47
2017-07-05T16:36:34.445Z,2.47
2017-07-05T16:39:03.111Z,2.23
2017-07-05T16:41:31.373Z,3.13
2017-07-05T16:43:59.816Z,3.10
2017-07-05T16:46:28.058Z,2.23
2017-07-05T16:48:56.356Z,1.63
2017-07-05T16:51:24.688Z,2.97
2017-07-05T16:53:53.135Z,2.97
2017-07-05T16:56:21.434Z,2.97
2017-07-05T16:58:49.685Z,7.20
2017-07-05T17:01:17.916Z,3.17
2017-07-05T17:03:46.205Z,1.97
2017-07-05T17:06:14.456Z,2.67
2017-07-05T17:08:42.873Z,2.03
2017-07-05T17:11:11.133Z,2.97
2017-07-05T17:13:39.373Z,4.50
2017-07-05T17:16:07.605Z,2.40
2017-07-05T17:18:35.973Z,3.40
2017-07-05T17:21:04.689Z,3.60
2017-07-05T17:23:32.940Z,3.07
2017-07-05T17:26:01.357Z,3.73
2017-07-05T17:28:29.624Z,1.57
2017-07-05T17:30:57.882Z,3.87
2017-07-05T17:33:26.165Z,3.43
2017-07-05T17:35:54.477Z,3.37
2017-07-05T17:38:22.705Z,3.30
2017-07-05T17:40:51.005Z,3.20
2017-07-05T17:43:19.236Z,4.67
2017-07-05T17:45:47.965Z,5.10
2017-07-05T17:48:16.659Z,1.97
2017-07-05T17:50:44.981Z,1.90
2017-07-05T17:53:13.748Z,4.57
2017-07-05T17:55:42.061Z,2.90
2017-07-05T17:58:10.317Z,3.37
2017-07-05T18:00:39.165Z,3.87
2017-07-05T18:03:07.444Z,5.07
2017-07-05T18:05:35.705Z,6.60
2017-07-05T18:08:03.941Z,3.20
2017-07-05T18:10:32.630Z,2.83
2017-07-05T18:13:01.267Z,2.70
2017-07-05T18:15:29.504Z,2.30
2017-07-05T18:17:57.869Z,2.00
2017-07-05T18:20:26.702Z,3.57
2017-07-05T18:22:55.008Z,2.03
2017-07-05T18:25:23.261Z,3.93
2017-07-05T18:27:51.761Z,3.03
2017-07-05T18:30:19.996Z,3.60
2017-07-05T18:32:48.279Z,2.80
2017-07-05T18:35:16.531Z,2.27
2017-07-05T18:37:45.235Z,2.80
2017-07-05T18:40:13.537Z,2.47
2017-07-05T18:42:41.773Z,1.87
